Summit, South Dakota
Current Conditions -  °F | °C
As of 1:53 AM on Thursday 23 Oct 2014 (Local Time) from KATY Reporting Station
Clear Clear  
Wind Chill: 44°   Ceiling: Unl
Heat Index: 46°   Visibility: 10mi
Dew Point: 45°   Wind: 5mph
Humidity: 96%   Direction: 150°SSE
Pressure: 29.98"   Gusts: NA
Location:  45.3°N, 97.04°W
Report Text: KATY 230653Z AUTO 15004KT 10SM CLR 08/07 A2998 RMK AO2 SLP153 T00780072
Loading
Personal Weather Stations






























Interactive Weather Map New forecast layout! Learn more

10-Day Weather Forecast

Advertisements
Track Severe Weather on mobile